sensor_id;sensor_type;location;lat;lon;timestamp;pressure;altitude;pressure_sealevel;temperature;humidity
34696;BME280;20918;51.138;17.370;2022-11-20T00:00:16;99906.47;;;-6.55;74.17
34696;BME280;20918;51.138;17.370;2022-11-20T00:03:22;99917.18;;;-6.64;74.25
34696;BME280;20918;51.138;17.370;2022-11-20T00:06:25;99918.19;;;-6.68;74.43
34696;BME280;20918;51.138;17.370;2022-11-20T00:09:31;99912.20;;;-6.69;74.71
34696;BME280;20918;51.138;17.370;2022-11-20T00:12:32;99914.65;;;-6.66;74.81
34696;BME280;20918;51.138;17.370;2022-11-20T00:15:33;99912.02;;;-6.64;74.75
34696;BME280;20918;51.138;17.370;2022-11-20T00:18:35;99906.31;;;-6.62;74.66
34696;BME280;20918;51.138;17.370;2022-11-20T00:21:44;99899.95;;;-6.64;74.95
34696;BME280;20918;51.138;17.370;2022-11-20T00:24:45;99900.50;;;-6.67;74.93
34696;BME280;20918;51.138;17.370;2022-11-20T00:27:46;99907.20;;;-6.73;75.04
34696;BME280;20918;51.138;17.370;2022-11-20T00:30:48;99906.05;;;-6.77;75.15
34696;BME280;20918;51.138;17.370;2022-11-20T00:33:51;99904.76;;;-6.77;75.35
34696;BME280;20918;51.138;17.370;2022-11-20T00:36:54;99903.88;;;-6.75;75.31
34696;BME280;20918;51.138;17.370;2022-11-20T00:39:55;99894.94;;;-6.79;75.43
34696;BME280;20918;51.138;17.370;2022-11-20T00:43:05;99900.19;;;-6.80;75.52
34696;BME280;20918;51.138;17.370;2022-11-20T00:46:19;99899.67;;;-6.78;75.64
34696;BME280;20918;51.138;17.370;2022-11-20T00:49:23;99893.02;;;-6.73;75.53
34696;BME280;20918;51.138;17.370;2022-11-20T00:52:29;99898.96;;;-6.71;75.60
34696;BME280;20918;51.138;17.370;2022-11-20T00:55:32;99901.41;;;-6.68;75.52
34696;BME280;20918;51.138;17.370;2022-11-20T00:58:38;99913.73;;;-6.65;75.42
34696;BME280;20918;51.138;17.370;2022-11-20T01:01:44;99914.02;;;-6.61;75.33
34696;BME280;20918;51.138;17.370;2022-11-20T01:04:48;99909.17;;;-6.58;75.27
34696;BME280;20918;51.138;17.370;2022-11-20T01:07:52;99919.42;;;-6.57;75.28
34696;BME280;20918;51.138;17.370;2022-11-20T01:10:58;99915.50;;;-6.55;75.39
34696;BME280;20918;51.138;17.370;2022-11-20T01:14:09;99919.30;;;-6.54;75.46
34696;BME280;20918;51.138;17.370;2022-11-20T01:17:13;99914.59;;;-6.54;75.40
34696;BME280;20918;51.138;17.370;2022-11-20T01:20:17;99914.99;;;-6.53;75.74
34696;BME280;20918;51.138;17.370;2022-11-20T01:23:20;99921.45;;;-6.53;75.87
34696;BME280;20918;51.138;17.370;2022-11-20T01:26:25;99924.08;;;-6.55;76.23
34696;BME280;20918;51.138;17.370;2022-11-20T01:29:31;99925.04;;;-6.57;76.33
34696;BME280;20918;51.138;17.370;2022-11-20T01:32:40;99923.92;;;-6.62;76.36
34696;BME280;20918;51.138;17.370;2022-11-20T01:35:41;99924.34;;;-6.61;76.25
34696;BME280;20918;51.138;17.370;2022-11-20T01:38:44;99921.67;;;-6.59;76.30
34696;BME280;20918;51.138;17.370;2022-11-20T01:41:48;99915.63;;;-6.58;76.21
34696;BME280;20918;51.138;17.370;2022-11-20T01:46:03;99911.17;;;-6.55;76.24
34696;BME280;20918;51.138;17.370;2022-11-20T01:49:15;99916.28;;;-6.53;76.08
34696;BME280;20918;51.138;17.370;2022-11-20T01:52:24;99909.30;;;-6.51;76.14
34696;BME280;20918;51.138;17.370;2022-11-20T01:55:52;99914.33;;;-6.48;76.19
34696;BME280;20918;51.138;17.370;2022-11-20T01:58:56;99905.29;;;-6.48;76.19
34696;BME280;20918;51.138;17.370;2022-11-20T02:01:59;99905.23;;;-6.46;76.20
34696;BME280;20918;51.138;17.370;2022-11-20T02:08:36;99905.62;;;-6.45;76.38
34696;BME280;20918;51.138;17.370;2022-11-20T02:11:44;99901.04;;;-6.49;76.50
34696;BME280;20918;51.138;17.370;2022-11-20T02:14:46;99896.92;;;-6.53;76.48
34696;BME280;20918;51.138;17.370;2022-11-20T02:17:48;99899.50;;;-6.53;76.34
34696;BME280;20918;51.138;17.370;2022-11-20T02:21:02;99904.72;;;-6.55;76.27
34696;BME280;20918;51.138;17.370;2022-11-20T02:27:18;99896.84;;;-6.51;76.30
34696;BME280;20918;51.138;17.370;2022-11-20T02:30:25;99891.35;;;-6.54;76.38
34696;BME280;20918;51.138;17.370;2022-11-20T02:33:29;99890.06;;;-6.54;76.40
34696;BME280;20918;51.138;17.370;2022-11-20T02:36:35;99885.31;;;-6.53;76.41
34696;BME280;20918;51.138;17.370;2022-11-20T02:39:42;99892.59;;;-6.52;76.36
34696;BME280;20918;51.138;17.370;2022-11-20T02:42:46;99891.56;;;-6.59;76.30
34696;BME280;20918;51.138;17.370;2022-11-20T02:45:53;99886.78;;;-6.58;76.49
34696;BME280;20918;51.138;17.370;2022-11-20T02:48:57;99889.73;;;-6.57;76.42
34696;BME280;20918;51.138;17.370;2022-11-20T02:51:59;99885.63;;;-6.61;76.39
34696;BME280;20918;51.138;17.370;2022-11-20T02:55:04;99888.25;;;-6.62;76.42
34696;BME280;20918;51.138;17.370;2022-11-20T02:58:06;99892.58;;;-6.63;76.47
34696;BME280;20918;51.138;17.370;2022-11-20T03:01:07;99889.30;;;-6.66;76.56
34696;BME280;20918;51.138;17.370;2022-11-20T03:04:11;99894.70;;;-6.62;76.58
34696;BME280;20918;51.138;17.370;2022-11-20T03:07:13;99893.82;;;-6.61;76.37
34696;BME280;20918;51.138;17.370;2022-11-20T03:10:15;99891.17;;;-6.70;76.10
34696;BME280;20918;51.138;17.370;2022-11-20T03:13:16;99895.92;;;-6.71;76.03
34696;BME280;20918;51.138;17.370;2022-11-20T03:16:21;99891.55;;;-6.69;76.62
34696;BME280;20918;51.138;17.370;2022-11-20T03:19:24;99900.25;;;-6.71;76.01
34696;BME280;20918;51.138;17.370;2022-11-20T03:22:29;99891.73;;;-6.73;75.90
34696;BME280;20918;51.138;17.370;2022-11-20T03:25:31;99877.20;;;-6.76;75.90
34696;BME280;20918;51.138;17.370;2022-11-20T03:28:34;99881.16;;;-6.78;75.68
34696;BME280;20918;51.138;17.370;2022-11-20T03:31:40;99893.78;;;-6.82;75.77
34696;BME280;20918;51.138;17.370;2022-11-20T03:34:42;99894.31;;;-6.84;75.94
34696;BME280;20918;51.138;17.370;2022-11-20T03:37:43;99898.19;;;-6.84;75.90
34696;BME280;20918;51.138;17.370;2022-11-20T03:40:50;99891.86;;;-6.87;75.87
34696;BME280;20918;51.138;17.370;2022-11-20T03:44:00;99902.61;;;-6.97;75.88
34696;BME280;20918;51.138;17.370;2022-11-20T03:47:01;99898.95;;;-7.14;75.83
34696;BME280;20918;51.138;17.370;2022-11-20T03:50:04;99896.12;;;-7.30;75.92
34696;BME280;20918;51.138;17.370;2022-11-20T03:53:11;99893.11;;;-7.41;76.11
34696;BME280;20918;51.138;17.370;2022-11-20T03:56:14;99894.93;;;-7.55;76.10
34696;BME280;20918;51.138;17.370;2022-11-20T03:59:20;99897.64;;;-7.70;76.41
34696;BME280;20918;51.138;17.370;2022-11-20T04:02:28;99901.36;;;-7.77;76.65
34696;BME280;20918;51.138;17.370;2022-11-20T04:05:30;99896.74;;;-7.80;76.91
34696;BME280;20918;51.138;17.370;2022-11-20T04:08:31;99896.29;;;-7.80;77.02
34696;BME280;20918;51.138;17.370;2022-11-20T04:11:36;99897.53;;;-7.78;77.10
34696;BME280;20918;51.138;17.370;2022-11-20T04:14:39;99906.51;;;-7.77;77.04
34696;BME280;20918;51.138;17.370;2022-11-20T04:17:43;99897.98;;;-7.79;77.07
34696;BME280;20918;51.138;17.370;2022-11-20T04:20:47;99904.92;;;-7.81;77.08
34696;BME280;20918;51.138;17.370;2022-11-20T04:23:51;99909.70;;;-7.82;77.08
34696;BME280;20918;51.138;17.370;2022-11-20T04:26:54;99913.90;;;-7.79;77.14
34696;BME280;20918;51.138;17.370;2022-11-20T04:29:56;99914.23;;;-7.77;76.63
34696;BME280;20918;51.138;17.370;2022-11-20T04:32:57;99906.59;;;-7.80;76.42
34696;BME280;20918;51.138;17.370;2022-11-20T04:36:09;99904.47;;;-7.80;76.52
34696;BME280;20918;51.138;17.370;2022-11-20T04:39:14;99907.61;;;-7.84;76.79
34696;BME280;20918;51.138;17.370;2022-11-20T04:42:16;99903.83;;;-7.85;76.90
34696;BME280;20918;51.138;17.370;2022-11-20T04:45:32;99900.27;;;-7.83;77.03
34696;BME280;20918;51.138;17.370;2022-11-20T04:48:34;99894.23;;;-7.82;76.89
34696;BME280;20918;51.138;17.370;2022-11-20T04:51:35;99889.96;;;-7.83;76.77
34696;BME280;20918;51.138;17.370;2022-11-20T04:54:38;99888.18;;;-7.81;76.90
34696;BME280;20918;51.138;17.370;2022-11-20T04:57:39;99882.87;;;-7.76;76.89
34696;BME280;20918;51.138;17.370;2022-11-20T05:00:40;99872.48;;;-7.75;76.79
34696;BME280;20918;51.138;17.370;2022-11-20T05:03:42;99872.48;;;-7.75;76.94
34696;BME280;20918;51.138;17.370;2022-11-20T05:06:44;99872.90;;;-7.74;77.02
34696;BME280;20918;51.138;17.370;2022-11-20T05:09:48;99871.42;;;-7.69;76.97
34696;BME280;20918;51.138;17.370;2022-11-20T05:12:51;99868.92;;;-7.71;76.56
34696;BME280;20918;51.138;17.370;2022-11-20T05:15:53;99866.72;;;-7.70;76.58
34696;BME280;20918;51.138;17.370;2022-11-20T05:18:54;99861.00;;;-7.66;76.86
34696;BME280;20918;51.138;17.370;2022-11-20T05:21:56;99858.71;;;-7.62;76.77
34696;BME280;20918;51.138;17.370;2022-11-20T05:24:57;99860.00;;;-7.62;76.52
34696;BME280;20918;51.138;17.370;2022-11-20T05:27:59;99859.55;;;-7.61;76.77
34696;BME280;20918;51.138;17.370;2022-11-20T05:31:09;99856.92;;;-7.60;76.79
34696;BME280;20918;51.138;17.370;2022-11-20T05:34:12;99851.36;;;-7.61;76.79
34696;BME280;20918;51.138;17.370;2022-11-20T05:37:16;99848.73;;;-7.59;76.94
34696;BME280;20918;51.138;17.370;2022-11-20T05:40:17;99861.20;;;-7.60;76.95
34696;BME280;20918;51.138;17.370;2022-11-20T05:43:20;99863.07;;;-7.64;77.00
34696;BME280;20918;51.138;17.370;2022-11-20T05:46:21;99865.55;;;-7.73;77.03
34696;BME280;20918;51.138;17.370;2022-11-20T05:49:22;99859.13;;;-7.84;77.20
34696;BME280;20918;51.138;17.370;2022-11-20T05:52:23;99849.81;;;-7.89;77.10
34696;BME280;20918;51.138;17.370;2022-11-20T05:55:26;99852.39;;;-7.89;77.10
34696;BME280;20918;51.138;17.370;2022-11-20T05:58:27;99849.39;;;-7.88;77.39
34696;BME280;20918;51.138;17.370;2022-11-20T06:01:30;99854.47;;;-7.86;77.44
34696;BME280;20918;51.138;17.370;2022-11-20T06:04:31;99861.70;;;-7.84;77.47
34696;BME280;20918;51.138;17.370;2022-11-20T06:07:33;99854.02;;;-7.86;77.35
34696;BME280;20918;51.138;17.370;2022-11-20T06:10:36;99859.51;;;-7.83;77.44
34696;BME280;20918;51.138;17.370;2022-11-20T06:13:37;99849.09;;;-7.80;77.07
34696;BME280;20918;51.138;17.370;2022-11-20T06:16:40;99855.64;;;-7.83;76.70
34696;BME280;20918;51.138;17.370;2022-11-20T06:19:41;99851.85;;;-7.85;76.76
34696;BME280;20918;51.138;17.370;2022-11-20T06:22:44;99848.48;;;-7.87;76.92
34696;BME280;20918;51.138;17.370;2022-11-20T06:25:45;99847.88;;;-7.94;76.92
34696;BME280;20918;51.138;17.370;2022-11-20T06:28:47;99840.09;;;-8.04;76.97
34696;BME280;20918;51.138;17.370;2022-11-20T06:31:49;99832.03;;;-8.06;77.14
34696;BME280;20918;51.138;17.370;2022-11-20T06:34:54;99837.52;;;-8.04;77.30
34696;BME280;20918;51.138;17.370;2022-11-20T06:37:55;99841.65;;;-8.00;77.54
34696;BME280;20918;51.138;17.370;2022-11-20T06:40:57;99841.83;;;-7.93;77.62
34696;BME280;20918;51.138;17.370;2022-11-20T06:44:04;99835.48;;;-7.84;77.84
34696;BME280;20918;51.138;17.370;2022-11-20T06:47:07;99841.03;;;-7.71;78.00
34696;BME280;20918;51.138;17.370;2022-11-20T06:50:09;99837.86;;;-7.56;78.09
34696;BME280;20918;51.138;17.370;2022-11-20T06:53:10;99838.94;;;-7.39;78.24
34696;BME280;20918;51.138;17.370;2022-11-20T06:56:11;99839.48;;;-7.21;78.28
34696;BME280;20918;51.138;17.370;2022-11-20T06:59:12;99828.16;;;-7.07;78.03
34696;BME280;20918;51.138;17.370;2022-11-20T07:02:13;99830.89;;;-7.00;77.78
34696;BME280;20918;51.138;17.370;2022-11-20T07:05:16;99834.95;;;-6.94;77.77
34696;BME280;20918;51.138;17.370;2022-11-20T07:08:18;99835.73;;;-6.92;77.76
34696;BME280;20918;51.138;17.370;2022-11-20T07:11:19;99838.06;;;-6.86;77.93
34696;BME280;20918;51.138;17.370;2022-11-20T07:14:20;99839.27;;;-6.84;77.81
34696;BME280;20918;51.138;17.370;2022-11-20T07:17:23;99841.80;;;-6.83;77.91
34696;BME280;20918;51.138;17.370;2022-11-20T07:20:24;99837.94;;;-6.72;78.10
34696;BME280;20918;51.138;17.370;2022-11-20T07:23:25;99834.88;;;-6.62;78.18
34696;BME280;20918;51.138;17.370;2022-11-20T07:26:26;99833.09;;;-6.49;78.13
34696;BME280;20918;51.138;17.370;2022-11-20T07:29:27;99828.76;;;-6.39;78.19
34696;BME280;20918;51.138;17.370;2022-11-20T07:32:29;99836.60;;;-6.21;78.28
34696;BME280;20918;51.138;17.370;2022-11-20T07:35:33;99836.82;;;-6.07;78.31
34696;BME280;20918;51.138;17.370;2022-11-20T07:38:37;99832.98;;;-5.90;78.34
34696;BME280;20918;51.138;17.370;2022-11-20T07:41:39;99829.46;;;-5.78;78.24
34696;BME280;20918;51.138;17.370;2022-11-20T07:44:40;99820.39;;;-5.68;78.21
34696;BME280;20918;51.138;17.370;2022-11-20T07:47:41;99816.17;;;-5.52;78.30
34696;BME280;20918;51.138;17.370;2022-11-20T07:50:42;99820.15;;;-5.36;77.93
34696;BME280;20918;51.138;17.370;2022-11-20T07:53:43;99817.73;;;-5.22;78.12
34696;BME280;20918;51.138;17.370;2022-11-20T07:56:44;99813.27;;;-4.83;78.21
34696;BME280;20918;51.138;17.370;2022-11-20T07:59:45;99813.14;;;-4.38;78.43
34696;BME280;20918;51.138;17.370;2022-11-20T08:02:46;99811.23;;;-3.94;78.07
34696;BME280;20918;51.138;17.370;2022-11-20T08:05:47;99803.97;;;-3.56;77.99
34696;BME280;20918;51.138;17.370;2022-11-20T08:08:48;99801.95;;;-3.12;77.13
34696;BME280;20918;51.138;17.370;2022-11-20T08:11:49;99802.67;;;-2.87;76.74
34696;BME280;20918;51.138;17.370;2022-11-20T08:15:09;99797.82;;;-2.41;77.20
34696;BME280;20918;51.138;17.370;2022-11-20T08:18:11;99801.98;;;-1.96;76.55
34696;BME280;20918;51.138;17.370;2022-11-20T08:21:12;99797.90;;;-1.59;76.26
34696;BME280;20918;51.138;17.370;2022-11-20T08:24:14;99797.87;;;-1.04;76.24
34696;BME280;20918;51.138;17.370;2022-11-20T08:27:15;99794.97;;;-0.54;75.88
34696;BME280;20918;51.138;17.370;2022-11-20T08:30:16;99797.05;;;-0.08;75.21
34696;BME280;20918;51.138;17.370;2022-11-20T08:33:18;99795.44;;;0.15;74.27
34696;BME280;20918;51.138;17.370;2022-11-20T08:36:20;99781.01;;;0.40;74.58
34696;BME280;20918;51.138;17.370;2022-11-20T08:39:22;99780.24;;;0.81;73.90
34696;BME280;20918;51.138;17.370;2022-11-20T08:42:23;99776.77;;;0.99;72.82
34696;BME280;20918;51.138;17.370;2022-11-20T08:45:24;99772.27;;;1.12;72.93
34696;BME280;20918;51.138;17.370;2022-11-20T08:48:25;99771.38;;;1.30;72.01
34696;BME280;20918;51.138;17.370;2022-11-20T08:51:26;99771.38;;;1.30;71.97
34696;BME280;20918;51.138;17.370;2022-11-20T08:54:27;99770.34;;;1.55;71.86
34696;BME280;20918;51.138;17.370;2022-11-20T08:57:31;99774.38;;;1.53;69.96
34696;BME280;20918;51.138;17.370;2022-11-20T09:00:33;99768.59;;;1.15;69.14
34696;BME280;20918;51.138;17.370;2022-11-20T09:03:35;99756.24;;;1.11;70.46
34696;BME280;20918;51.138;17.370;2022-11-20T09:06:36;99758.91;;;1.39;70.34
34696;BME280;20918;51.138;17.370;2022-11-20T09:09:37;99758.21;;;1.76;70.64
34696;BME280;20918;51.138;17.370;2022-11-20T09:12:38;99759.41;;;1.95;69.81
34696;BME280;20918;51.138;17.370;2022-11-20T09:15:39;99765.22;;;2.04;68.86
34696;BME280;20918;51.138;17.370;2022-11-20T09:18:40;99765.44;;;2.18;69.20
34696;BME280;20918;51.138;17.370;2022-11-20T09:21:50;99762.87;;;2.44;68.97
34696;BME280;20918;51.138;17.370;2022-11-20T09:24:51;99763.20;;;2.57;68.32
34696;BME280;20918;51.138;17.370;2022-11-20T09:27:58;99755.13;;;2.81;68.19
34696;BME280;20918;51.138;17.370;2022-11-20T09:31:00;99757.06;;;3.00;67.53
34696;BME280;20918;51.138;17.370;2022-11-20T09:34:03;99753.91;;;3.11;67.23
34696;BME280;20918;51.138;17.370;2022-11-20T09:37:04;99745.58;;;3.06;65.61
34696;BME280;20918;51.138;17.370;2022-11-20T09:40:06;99738.75;;;2.94;65.44
34696;BME280;20918;51.138;17.370;2022-11-20T09:43:38;99736.38;;;2.91;66.16
34696;BME280;20918;51.138;17.370;2022-11-20T09:46:59;99740.42;;;2.89;64.79
34696;BME280;20918;51.138;17.370;2022-11-20T09:57:14;99726.44;;;2.79;65.90
34696;BME280;20918;51.138;17.370;2022-11-20T10:00:20;99720.34;;;3.05;65.17
34696;BME280;20918;51.138;17.370;2022-11-20T10:03:52;99713.08;;;3.03;62.94
34696;BME280;20918;51.138;17.370;2022-11-20T10:07:12;99718.33;;;2.82;63.78
34696;BME280;20918;51.138;17.370;2022-11-20T10:10:22;99710.06;;;2.66;62.50
34696;BME280;20918;51.138;17.370;2022-11-20T10:13:45;99704.89;;;2.49;62.54
34696;BME280;20918;51.138;17.370;2022-11-20T10:30:40;99699.97;;;3.03;61.32
34696;BME280;20918;51.138;17.370;2022-11-20T10:33:44;99692.77;;;2.90;61.61
34696;BME280;20918;51.138;17.370;2022-11-20T10:37:11;99688.25;;;2.71;59.65
34696;BME280;20918;51.138;17.370;2022-11-20T10:40:32;99694.88;;;2.54;60.84
34696;BME280;20918;51.138;17.370;2022-11-20T10:43:38;99672.64;;;2.49;60.55
34696;BME280;20918;51.138;17.370;2022-11-20T10:46:45;99654.99;;;2.56;61.37
34696;BME280;20918;51.138;17.370;2022-11-20T10:49:47;99654.79;;;2.48;58.95
34696;BME280;20918;51.138;17.370;2022-11-20T10:56:46;99655.88;;;2.45;60.55
34696;BME280;20918;51.138;17.370;2022-11-20T11:00:06;99660.37;;;2.49;60.34
34696;BME280;20918;51.138;17.370;2022-11-20T11:03:40;99656.19;;;2.52;59.68
34696;BME280;20918;51.138;17.370;2022-11-20T11:06:36;99647.93;;;2.62;60.21
34696;BME280;20918;51.138;17.370;2022-11-20T11:09:43;99651.23;;;2.64;59.63
34696;BME280;20918;51.138;17.370;2022-11-20T11:12:47;99645.13;;;2.69;59.54
34696;BME280;20918;51.138;17.370;2022-11-20T11:15:48;99644.84;;;2.78;59.56
34696;BME280;20918;51.138;17.370;2022-11-20T11:18:50;99644.06;;;2.93;59.26
34696;BME280;20918;51.138;17.370;2022-11-20T11:21:55;99640.95;;;2.94;58.45
34696;BME280;20918;51.138;17.370;2022-11-20T11:24:59;99637.13;;;2.92;58.97
34696;BME280;20918;51.138;17.370;2022-11-20T11:28:23;99632.00;;;2.96;55.82
34696;BME280;20918;51.138;17.370;2022-11-20T11:31:06;99629.16;;;2.73;57.02
34696;BME280;20918;51.138;17.370;2022-11-20T11:34:16;99625.41;;;2.81;58.16
34696;BME280;20918;51.138;17.370;2022-11-20T11:37:20;99624.67;;;2.84;57.09
34696;BME280;20918;51.138;17.370;2022-11-20T11:40:22;99622.76;;;2.86;57.69
34696;BME280;20918;51.138;17.370;2022-11-20T11:43:25;99622.50;;;2.89;57.09
34696;BME280;20918;51.138;17.370;2022-11-20T11:46:51;99610.97;;;2.86;57.50
34696;BME280;20918;51.138;17.370;2022-11-20T11:53:24;99601.39;;;2.76;56.94
34696;BME280;20918;51.138;17.370;2022-11-20T11:56:30;99594.76;;;2.72;56.92
34696;BME280;20918;51.138;17.370;2022-11-20T12:03:38;99572.68;;;2.59;56.93
34696;BME280;20918;51.138;17.370;2022-11-20T12:06:37;99580.45;;;2.55;57.07
34696;BME280;20918;51.138;17.370;2022-11-20T12:09:43;99583.08;;;2.70;57.59
34696;BME280;20918;51.138;17.370;2022-11-20T12:12:53;99581.66;;;2.72;55.77
34696;BME280;20918;51.138;17.370;2022-11-20T12:15:57;99575.85;;;2.47;56.85
34696;BME280;20918;51.138;17.370;2022-11-20T12:19:01;99573.01;;;2.44;56.98
34696;BME280;20918;51.138;17.370;2022-11-20T12:22:26;99573.89;;;2.39;57.04
34696;BME280;20918;51.138;17.370;2022-11-20T12:25:34;99576.03;;;2.40;57.17
34696;BME280;20918;51.138;17.370;2022-11-20T12:28:48;99577.42;;;2.44;57.64
34696;BME280;20918;51.138;17.370;2022-11-20T12:38:55;99570.24;;;2.52;57.64
34696;BME280;20918;51.138;17.370;2022-11-20T12:42:31;99572.60;;;2.55;57.82
34696;BME280;20918;51.138;17.370;2022-11-20T12:46:17;99570.61;;;2.47;57.73
34696;BME280;20918;51.138;17.370;2022-11-20T12:49:47;99571.95;;;2.41;57.53
34696;BME280;20918;51.138;17.370;2022-11-20T12:53:03;99578.81;;;2.27;57.73
34696;BME280;20918;51.138;17.370;2022-11-20T13:00:19;99573.66;;;2.10;58.02
34696;BME280;20918;51.138;17.370;2022-11-20T13:03:47;99565.08;;;2.14;58.24
34696;BME280;20918;51.138;17.370;2022-11-20T13:06:49;99555.94;;;2.08;57.93
34696;BME280;20918;51.138;17.370;2022-11-20T13:09:51;99554.56;;;1.98;58.00
34696;BME280;20918;51.138;17.370;2022-11-20T13:13:03;99557.46;;;1.90;58.21
34696;BME280;20918;51.138;17.370;2022-11-20T13:16:26;99557.59;;;1.83;58.42
34696;BME280;20918;51.138;17.370;2022-11-20T13:19:34;99553.94;;;1.74;58.49
34696;BME280;20918;51.138;17.370;2022-11-20T13:22:52;99539.48;;;1.64;58.63
34696;BME280;20918;51.138;17.370;2022-11-20T13:26:13;99537.45;;;1.62;59.05
34696;BME280;20918;51.138;17.370;2022-11-20T13:29:18;99536.49;;;1.63;59.05
34696;BME280;20918;51.138;17.370;2022-11-20T13:32:21;99522.73;;;1.61;58.97
34696;BME280;20918;51.138;17.370;2022-11-20T13:35:34;99520.48;;;1.56;59.17
34696;BME280;20918;51.138;17.370;2022-11-20T13:38:50;99517.62;;;1.54;59.28
34696;BME280;20918;51.138;17.370;2022-11-20T13:42:00;99506.83;;;1.53;59.29
34696;BME280;20918;51.138;17.370;2022-11-20T13:45:09;99498.86;;;1.49;59.37
34696;BME280;20918;51.138;17.370;2022-11-20T13:48:23;99492.70;;;1.50;59.50
34696;BME280;20918;51.138;17.370;2022-11-20T13:57:52;99490.67;;;1.48;59.64
34696;BME280;20918;51.138;17.370;2022-11-20T14:00:57;99500.08;;;1.45;59.83
34696;BME280;20918;51.138;17.370;2022-11-20T14:03:59;99501.63;;;1.42;59.97
34696;BME280;20918;51.138;17.370;2022-11-20T14:07:00;99495.34;;;1.39;60.11
34696;BME280;20918;51.138;17.370;2022-11-20T14:10:02;99487.12;;;1.38;60.14
34696;BME280;20918;51.138;17.370;2022-11-20T14:13:18;99487.03;;;1.33;60.31
34696;BME280;20918;51.138;17.370;2022-11-20T14:16:21;99489.90;;;1.30;60.50
34696;BME280;20918;51.138;17.370;2022-11-20T14:19:29;99486.10;;;1.23;60.67
34696;BME280;20918;51.138;17.370;2022-11-20T14:22:32;99483.88;;;1.19;60.85
34696;BME280;20918;51.138;17.370;2022-11-20T14:25:33;99480.79;;;1.14;60.93
34696;BME280;20918;51.138;17.370;2022-11-20T14:28:35;99475.69;;;1.06;61.08
34696;BME280;20918;51.138;17.370;2022-11-20T14:31:36;99473.70;;;0.99;61.27
34696;BME280;20918;51.138;17.370;2022-11-20T14:34:39;99468.25;;;0.91;61.43
34696;BME280;20918;51.138;17.370;2022-11-20T14:37:41;99473.83;;;0.80;61.65
34696;BME280;20918;51.138;17.370;2022-11-20T14:40:42;99467.41;;;0.73;61.82
34696;BME280;20918;51.138;17.370;2022-11-20T14:43:58;99472.42;;;0.65;61.93
34696;BME280;20918;51.138;17.370;2022-11-20T14:47:01;99471.47;;;0.55;62.09
34696;BME280;20918;51.138;17.370;2022-11-20T14:50:07;99479.30;;;0.43;62.35
34696;BME280;20918;51.138;17.370;2022-11-20T14:53:21;99470.62;;;0.32;62.58
34696;BME280;20918;51.138;17.370;2022-11-20T14:56:24;99471.69;;;0.24;62.86
34696;BME280;20918;51.138;17.370;2022-11-20T14:59:27;99468.34;;;0.16;62.92
34696;BME280;20918;51.138;17.370;2022-11-20T15:02:31;99472.48;;;0.07;63.12
34696;BME280;20918;51.138;17.370;2022-11-20T15:05:47;99469.38;;;0.02;63.27
34696;BME280;20918;51.138;17.370;2022-11-20T15:08:51;99468.69;;;0.00;63.38
34696;BME280;20918;51.138;17.370;2022-11-20T15:12:00;99461.55;;;-0.04;63.48
34696;BME280;20918;51.138;17.370;2022-11-20T15:15:02;99463.31;;;-0.10;63.71
34696;BME280;20918;51.138;17.370;2022-11-20T15:18:11;99460.92;;;-0.18;64.05
34696;BME280;20918;51.138;17.370;2022-11-20T15:21:16;99464.59;;;-0.21;64.31
34696;BME280;20918;51.138;17.370;2022-11-20T15:24:19;99468.16;;;-0.22;64.25
34696;BME280;20918;51.138;17.370;2022-11-20T15:27:20;99466.02;;;-0.22;64.42
34696;BME280;20918;51.138;17.370;2022-11-20T15:30:22;99468.38;;;-0.25;64.55
34696;BME280;20918;51.138;17.370;2022-11-20T15:33:23;99468.73;;;-0.24;64.60
34696;BME280;20918;51.138;17.370;2022-11-20T15:36:25;99466.92;;;-0.29;64.62
34696;BME280;20918;51.138;17.370;2022-11-20T15:39:26;99467.16;;;-0.32;64.79
34696;BME280;20918;51.138;17.370;2022-11-20T15:42:27;99463.58;;;-0.37;64.84
34696;BME280;20918;51.138;17.370;2022-11-20T15:45:31;99460.02;;;-0.41;65.00
34696;BME280;20918;51.138;17.370;2022-11-20T15:48:39;99463.94;;;-0.41;65.07
34696;BME280;20918;51.138;17.370;2022-11-20T15:51:44;99462.70;;;-0.49;65.01
34696;BME280;20918;51.138;17.370;2022-11-20T15:54:49;99453.53;;;-0.60;65.09
34696;BME280;20918;51.138;17.370;2022-11-20T15:57:51;99459.42;;;-0.69;65.28
34696;BME280;20918;51.138;17.370;2022-11-20T16:00:52;99453.84;;;-0.76;65.55
34696;BME280;20918;51.138;17.370;2022-11-20T16:03:54;99454.73;;;-0.82;65.65
34696;BME280;20918;51.138;17.370;2022-11-20T16:06:56;99451.43;;;-0.84;65.76
34696;BME280;20918;51.138;17.370;2022-11-20T16:09:57;99454.22;;;-0.87;65.77
34696;BME280;20918;51.138;17.370;2022-11-20T16:12:58;99457.40;;;-0.95;65.83
34696;BME280;20918;51.138;17.370;2022-11-20T16:16:23;99453.91;;;-1.07;65.88
34696;BME280;20918;51.138;17.370;2022-11-20T16:19:29;99460.82;;;-1.13;66.07
34696;BME280;20918;51.138;17.370;2022-11-20T16:22:30;99450.63;;;-1.16;66.21
34696;BME280;20918;51.138;17.370;2022-11-20T16:25:36;99451.83;;;-1.15;66.28
34696;BME280;20918;51.138;17.370;2022-11-20T16:28:38;99451.32;;;-1.20;66.31
34696;BME280;20918;51.138;17.370;2022-11-20T16:31:41;99443.00;;;-1.25;66.41
34696;BME280;20918;51.138;17.370;2022-11-20T16:34:43;99450.20;;;-1.28;66.42
34696;BME280;20918;51.138;17.370;2022-11-20T16:37:46;99449.11;;;-1.31;66.54
34696;BME280;20918;51.138;17.370;2022-11-20T16:40:47;99458.92;;;-1.35;66.48
34696;BME280;20918;51.138;17.370;2022-11-20T16:43:50;99453.77;;;-1.42;66.53
34696;BME280;20918;51.138;17.370;2022-11-20T16:46:53;99444.40;;;-1.45;66.83
34696;BME280;20918;51.138;17.370;2022-11-20T16:49:57;99438.58;;;-1.48;66.95
34696;BME280;20918;51.138;17.370;2022-11-20T16:53:00;99445.26;;;-1.57;67.01
34696;BME280;20918;51.138;17.370;2022-11-20T16:56:15;99445.69;;;-1.63;67.15
34696;BME280;20918;51.138;17.370;2022-11-20T16:59:20;99434.76;;;-1.68;67.18
34696;BME280;20918;51.138;17.370;2022-11-20T17:02:21;99435.19;;;-1.74;67.08
34696;BME280;20918;51.138;17.370;2022-11-20T17:05:23;99442.16;;;-1.88;67.10
34696;BME280;20918;51.138;17.370;2022-11-20T17:08:27;99442.19;;;-1.95;67.17